Time;durP1;ratioP1;P1;durP2;ratioP2;P2;SDS_P1;SDS_P2;PMS_P1;PMS_P2;Temp;Humidity;BMP_temperature;BMP_pressure;BME280_temperature;BME280_humidity;BME280_pressure;Samples;Min_cycle;Max_cycle;Signal;HPM_P1;HPM_P2
2021/03/08 00:01:19;;;;;;;18.48;12.05;;;-4.20;99.90;;;;;;5016249;28;20054;-83
2021/03/08 00:03:46;;;;;;;19.58;12.20;;;-4.10;99.90;;;;;;4999512;28;20145;-83
2021/03/08 00:06:13;;;;;;;18.27;11.57;;;-4.10;99.90;;;;;;5000324;28;20116;-83
2021/03/08 00:08:41;;;;;;;20.05;12.15;;;-4.00;99.90;;;;;;4999062;28;20054;-82
2021/03/08 00:11:07;;;;;;;16.52;12.27;;;-4.00;99.90;;;;;;5003803;28;20050;-82
2021/03/08 00:13:41;;;;;;;22.85;14.32;;;-3.90;99.90;;;;;;5004211;28;20135;-82
2021/03/08 00:16:08;;;;;;;23.90;14.18;;;-3.60;99.90;;;;;;5018416;28;20104;-81
2021/03/08 00:18:35;;;;;;;19.00;13.70;;;-3.50;99.90;;;;;;4998671;28;20117;-82
2021/03/08 00:21:02;;;;;;;21.58;14.65;;;-3.30;99.90;;;;;;4999185;28;20049;-82
2021/03/08 00:23:29;;;;;;;20.70;13.88;;;-3.20;99.90;;;;;;4999643;28;20050;-82
2021/03/08 00:25:56;;;;;;;18.00;12.90;;;-3.10;99.90;;;;;;4999319;28;20065;-82
2021/03/08 00:28:23;;;;;;;17.63;12.18;;;-3.00;99.90;;;;;;4998505;28;20049;-81
2021/03/08 00:30:50;;;;;;;20.67;12.57;;;-2.90;99.90;;;;;;4998103;28;20108;-81
2021/03/08 00:33:17;;;;;;;20.55;12.43;;;-2.90;99.90;;;;;;4997156;28;20134;-82
2021/03/08 00:35:44;;;;;;;17.77;12.18;;;-2.80;99.90;;;;;;4997583;28;20062;-81
2021/03/08 00:38:11;;;;;;;18.25;11.88;;;-2.70;99.90;;;;;;5014594;28;20049;-81
2021/03/08 00:40:38;;;;;;;14.68;10.95;;;-2.70;99.90;;;;;;4997322;28;20046;-81
2021/03/08 00:43:04;;;;;;;12.70;10.02;;;-2.60;99.90;;;;;;5015249;28;20080;-81
2021/03/08 00:45:34;;;;;;;15.80;11.25;;;-2.60;99.90;;;;;;5018467;28;20100;-81
2021/03/08 00:48:00;;;;;;;15.98;10.90;;;-2.60;99.90;;;;;;5000874;28;20053;-82
2021/03/08 00:50:29;;;;;;;14.88;10.98;;;-2.50;99.90;;;;;;5018278;28;20050;-81
2021/03/08 00:52:56;;;;;;;14.65;10.80;;;-2.50;99.90;;;;;;5000630;28;20467;-81
2021/03/08 00:55:22;;;;;;;14.38;10.90;;;-2.40;99.90;;;;;;5001361;28;20051;-81
2021/03/08 00:57:49;;;;;;;21.50;11.02;;;-2.40;99.90;;;;;;5001024;28;20109;-81
2021/03/08 01:00:44;;;;;;;16.33;11.68;;;-2.40;99.90;;;;;;5001155;28;20454;-82
2021/03/08 01:03:11;;;;;;;14.27;9.88;;;-2.50;99.90;;;;;;5018815;28;20514;-82
2021/03/08 01:05:38;;;;;;;17.75;10.15;;;-2.50;99.90;;;;;;5000910;28;20065;-82
2021/03/08 01:08:07;;;;;;;16.58;10.93;;;-2.50;99.90;;;;;;5001082;28;20062;-82
2021/03/08 01:10:33;;;;;;;15.48;10.60;;;-2.60;99.90;;;;;;5001092;28;20050;-82
2021/03/08 01:13:01;;;;;;;19.73;10.93;;;-2.50;99.90;;;;;;5018549;28;20042;-82
2021/03/08 01:15:27;;;;;;;15.95;10.95;;;-2.50;99.90;;;;;;5000786;28;20042;-82
2021/03/08 01:17:54;;;;;;;14.73;9.88;;;-2.50;99.90;;;;;;5018391;28;20054;-82
2021/03/08 01:20:21;;;;;;;15.23;9.98;;;-2.50;99.90;;;;;;5018647;28;20049;-82
2021/03/08 01:22:49;;;;;;;15.13;10.32;;;-2.60;99.90;;;;;;5018583;28;20534;-82
2021/03/08 01:25:26;;;;;;;14.20;10.85;;;-2.60;99.90;;;;;;5000876;28;20050;-82
2021/03/08 01:27:53;;;;;;;18.17;10.85;;;-2.50;99.90;;;;;;5001031;28;20495;-82
2021/03/08 01:30:25;;;;;;;15.75;11.02;;;-2.50;99.90;;;;;;5000987;28;20100;-82
2021/03/08 01:32:51;;;;;;;17.25;11.10;;;-2.50;99.90;;;;;;5018927;28;20045;-82
2021/03/08 01:35:20;;;;;;;15.32;10.75;;;-2.40;99.90;;;;;;5001817;28;20046;-82
2021/03/08 01:37:47;;;;;;;15.40;11.48;;;-2.30;99.90;;;;;;5002219;28;20053;-82
2021/03/08 01:40:26;;;;;;;15.40;10.30;;;-2.20;99.90;;;;;;5002113;28;20088;-82
2021/03/08 01:42:53;;;;;;;17.17;11.55;;;-2.10;99.90;;;;;;5002477;28;20057;-84
2021/03/08 01:45:21;;;;;;;17.90;11.15;;;-1.90;99.90;;;;;;5001854;28;20054;-82
2021/03/08 01:47:50;;;;;;;16.10;11.10;;;-2.00;99.90;;;;;;5018681;28;20052;-82
2021/03/08 01:50:33;;;;;;;15.10;10.52;;;-2.10;99.90;;;;;;5000664;28;20061;-82
2021/03/08 01:53:00;;;;;;;14.82;10.27;;;-2.10;99.90;;;;;;5000749;28;20100;-82
2021/03/08 01:55:28;;;;;;;17.83;11.40;;;-2.10;99.90;;;;;;4999314;28;20049;-82
2021/03/08 01:57:56;;;;;;;18.95;10.75;;;-2.00;99.90;;;;;;5017896;28;20068;-82
2021/03/08 02:00:25;;;;;;;16.63;10.10;;;-1.80;99.90;;;;;;5001107;28;20056;-82
2021/03/08 02:02:53;;;;;;;14.88;10.77;;;-1.80;99.90;;;;;;5000760;28;20088;-82
2021/03/08 02:05:28;;;;;;;14.82;10.13;;;-1.80;99.90;;;;;;5000933;28;20134;-82
2021/03/08 02:08:04;;;;;;;18.65;9.52;;;-1.70;99.90;;;;;;5001101;28;20482;-82
2021/03/08 02:10:33;;;;;;;13.95;9.55;;;-1.70;99.90;;;;;;5017973;28;20050;-82
2021/03/08 02:13:30;;;;;;;13.32;8.93;;;-1.60;99.90;;;;;;5001016;28;20077;-83
2021/03/08 02:16:15;;;;;;;14.48;9.40;;;-1.50;99.90;;;;;;5000739;28;20092;-82
2021/03/08 02:19:00;;;;;;;17.58;8.98;;;-1.40;99.90;;;;;;5018721;28;20057;-83
2021/03/08 02:22:04;;;;;;;11.43;8.60;;;-1.30;99.90;;;;;;5018241;28;20045;-82
2021/03/08 02:24:48;;;;;;;13.25;7.97;;;-1.30;99.90;;;;;;5000555;28;20056;-82
2021/03/08 02:27:18;;;;;;;17.02;8.48;;;-1.30;99.90;;;;;;5017989;28;20054;-83
2021/03/08 02:29:50;;;;;;;11.07;7.97;;;-1.20;99.90;;;;;;5001116;28;20450;-82
2021/03/08 02:32:43;;;;;;;9.87;7.70;;;-1.20;99.90;;;;;;5001343;28;20046;-83
2021/03/08 02:35:14;;;;;;;10.98;8.10;;;-1.20;99.90;;;;;;5000217;28;20292;-82
2021/03/08 02:37:48;;;;;;;10.27;7.60;;;-1.20;99.90;;;;;;5000425;28;20061;-83
2021/03/08 02:40:19;;;;;;;12.75;7.55;;;-1.20;99.90;;;;;;5018006;28;20060;-83
2021/03/08 02:42:53;;;;;;;11.82;7.60;;;-1.20;99.90;;;;;;5001019;28;20088;-83
2021/03/08 02:45:21;;;;;;;;;;;-1.10;99.90;;;;;;5001064;28;20100;-83
2021/03/08 02:47:50;;;;;;;11.50;7.50;;;-1.10;99.90;;;;;;5000044;28;20362;-83
2021/03/08 02:50:31;;;;;;;9.85;7.50;;;-1.20;99.90;;;;;;5000285;28;20499;-83
2021/03/08 02:53:03;;;;;;;10.35;7.70;;;-1.30;99.90;;;;;;5001459;28;20050;-83
2021/03/08 02:55:41;;;;;;;10.05;7.88;;;-1.10;99.90;;;;;;5001219;28;20041;-83
2021/03/08 02:58:16;;;;;;;9.45;7.00;;;-1.10;99.90;;;;;;5001216;28;20100;-84
2021/03/08 03:00:51;;;;;;;9.52;7.53;;;-1.10;99.90;;;;;;5002230;28;20160;-84
2021/03/08 03:03:21;;;;;;;9.90;7.63;;;-1.10;99.90;;;;;;4999970;28;20053;-83
2021/03/08 03:05:54;;;;;;;13.90;7.93;;;-1.10;99.90;;;;;;4999664;28;20050;-83
2021/03/08 03:08:25;;;;;;;;;;;-1.10;99.90;;;;;;5018509;28;20462;-84
2021/03/08 03:10:52;;;;;;;16.80;8.20;;;-1.20;99.90;;;;;;5017622;28;19968;-83
2021/03/08 03:13:28;;;;;;;18.67;8.00;;;-1.10;99.90;;;;;;5017940;28;20085;-83
2021/03/08 03:15:57;;;;;;;18.70;8.07;;;-1.00;99.90;;;;;;5000797;28;20068;-82
2021/03/08 03:18:26;;;;;;;11.85;8.05;;;-1.00;99.90;;;;;;5000477;28;20100;-83
2021/03/08 03:20:57;;;;;;;11.38;7.70;;;-1.00;99.90;;;;;;5016904;28;20061;-83
2021/03/08 03:23:26;;;;;;;8.60;7.30;;;-1.00;99.90;;;;;;4998973;28;20053;-82
2021/03/08 03:25:53;;;;;;;11.73;7.30;;;-1.00;99.90;;;;;;5016666;28;20503;-83
2021/03/08 03:28:22;;;;;;;19.20;7.82;;;-0.90;99.90;;;;;;5004304;28;20054;-83
2021/03/08 03:30:49;;;;;;;9.73;7.45;;;-1.00;99.90;;;;;;5004327;28;20073;-83
2021/03/08 03:33:17;;;;;;;9.20;7.57;;;-0.80;99.90;;;;;;5004380;28;20080;-82
2021/03/08 03:35:44;;;;;;;13.40;7.30;;;-0.80;99.90;;;;;;5003368;28;20072;-83
2021/03/08 03:38:11;;;;;;;10.70;7.95;;;-0.80;99.90;;;;;;5005385;28;20042;-83
2021/03/08 03:40:37;;;;;;;9.13;6.60;;;-0.70;99.90;;;;;;5004838;28;20503;-83
2021/03/08 03:43:04;;;;;;;10.18;7.05;;;-0.80;99.90;;;;;;5005115;28;20133;-83
2021/03/08 03:45:30;;;;;;;10.80;7.80;;;-0.80;99.90;;;;;;5005632;28;20073;-83
2021/03/08 03:47:57;;;;;;;6.82;6.10;;;-0.70;99.90;;;;;;5006110;28;20089;-83
2021/03/08 03:50:25;;;;;;;8.77;7.22;;;-0.80;99.90;;;;;;5006123;28;20136;-83
2021/03/08 03:52:51;;;;;;;15.15;7.15;;;-0.80;99.90;;;;;;5005388;28;20054;-83
2021/03/08 03:55:20;;;;;;;9.80;7.18;;;-0.70;99.90;;;;;;5023688;28;20081;-84
2021/03/08 03:58:20;;;;;;;9.05;6.82;;;-0.60;99.90;;;;;;5023705;28;20049;-84
2021/03/08 04:00:52;;;;;;;13.50;6.68;;;-0.50;99.90;;;;;;5006040;28;20145;-83
2021/03/08 04:03:23;;;;;;;;;;;-0.50;99.90;;;;;;5007617;28;20061;-84
2021/03/08 04:05:53;;;;;;;12.18;6.60;;;-0.50;99.90;;;;;;5007287;28;19944;-84
2021/03/08 04:08:24;;;;;;;14.23;7.00;;;-0.40;99.90;;;;;;5023762;28;20058;-84
2021/03/08 04:10:52;;;;;;;11.70;6.22;;;-0.50;99.90;;;;;;5007962;28;20100;-84
2021/03/08 04:13:27;;;;;;;11.38;7.03;;;-0.50;99.90;;;;;;5008281;28;20065;-84
2021/03/08 04:15:57;;;;;;;8.27;5.93;;;-0.50;99.90;;;;;;5009772;28;20050;-83
2021/03/08 04:18:26;;;;;;;10.52;6.35;;;-0.40;99.90;;;;;;5029728;28;20057;-83
2021/03/08 04:20:54;;;;;;;10.13;6.75;;;-0.40;99.90;;;;;;5006355;28;20112;-83
2021/03/08 04:23:22;;;;;;;9.23;6.22;;;-0.30;99.90;;;;;;5002844;28;20427;-82
2021/03/08 04:25:49;;;;;;;16.27;7.57;;;-0.30;99.90;;;;;;5003775;28;20046;-83
2021/03/08 04:28:16;;;;;;;11.65;6.25;;;-0.50;99.90;;;;;;5002338;28;20077;-83
2021/03/08 04:30:45;;;;;;;10.93;7.00;;;-0.40;99.90;;;;;;5002366;28;20407;-84
2021/03/08 04:33:13;;;;;;;16.90;7.40;;;-0.30;99.90;;;;;;5002772;28;20084;-83
2021/03/08 04:35:43;;;;;;;10.93;8.32;;;-0.50;99.90;;;;;;5022535;28;20050;-83
2021/03/08 04:38:10;;;;;;;14.27;7.35;;;-0.50;99.90;;;;;;5003042;28;20042;-83
2021/03/08 04:40:36;;;;;;;18.05;7.82;;;-0.40;99.90;;;;;;5005934;28;20054;-82
2021/03/08 04:43:04;;;;;;;15.45;7.65;;;-0.40;99.90;;;;;;5022883;28;20049;-83
2021/03/08 04:45:31;;;;;;;24.63;7.45;;;-0.40;99.90;;;;;;5003402;28;20141;-83
2021/03/08 04:48:01;;;;;;;21.65;7.10;;;-0.50;99.90;;;;;;5005801;28;20049;-83
2021/03/08 04:50:28;;;;;;;13.75;7.30;;;-0.40;99.90;;;;;;5021818;28;20586;-83
2021/03/08 04:52:56;;;;;;;13.63;6.80;;;-0.40;99.90;;;;;;5003396;28;20100;-83
2021/03/08 04:55:26;;;;;;;12.50;7.47;;;-0.40;99.90;;;;;;5022917;28;20104;-83
2021/03/08 04:57:53;;;;;;;22.73;7.97;;;-0.40;99.90;;;;;;5005545;28;20045;-84
2021/03/08 05:00:20;;;;;;;18.58;7.85;;;-0.40;99.90;;;;;;5004469;28;20504;-84
2021/03/08 05:02:48;;;;;;;18.77;8.30;;;-0.40;99.90;;;;;;5004975;28;20561;-84
2021/03/08 05:05:20;;;;;;;14.02;8.52;;;-0.50;99.90;;;;;;5004079;28;20108;-83
2021/03/08 05:07:48;;;;;;;17.48;7.35;;;-0.50;99.90;;;;;;5005244;28;20060;-84
2021/03/08 05:10:17;;;;;;;11.50;7.35;;;-0.50;99.90;;;;;;5022374;28;20052;-83
2021/03/08 05:12:43;;;;;;;14.90;8.48;;;-0.40;99.90;;;;;;5005524;28;20042;-84
2021/03/08 05:15:14;;;;;;;13.05;8.05;;;-0.40;99.90;;;;;;5024810;28;20057;-84
2021/03/08 05:17:43;;;;;;;16.30;8.38;;;-0.50;99.90;;;;;;5007581;28;20049;-84
2021/03/08 05:20:12;;;;;;;21.92;8.23;;;-0.50;99.90;;;;;;5008105;28;20084;-83
2021/03/08 05:22:40;;;;;;;12.20;8.70;;;-0.50;99.90;;;;;;5024661;28;20136;-84
2021/03/08 05:25:09;;;;;;;15.38;8.77;;;-0.40;99.90;;;;;;5007608;28;20053;-84
2021/03/08 05:27:36;;;;;;;15.30;8.63;;;-0.30;99.90;;;;;;5008516;28;20478;-84
2021/03/08 05:30:05;;;;;;;16.70;8.95;;;-0.40;99.90;;;;;;5008741;28;20100;-84
2021/03/08 05:32:37;;;;;;;11.80;8.07;;;-0.50;99.90;;;;;;5010514;28;20054;-83
2021/03/08 05:35:04;;;;;;;20.85;8.27;;;-0.40;99.90;;;;;;5012967;28;20583;-82
2021/03/08 05:37:33;;;;;;;16.67;8.63;;;-0.30;99.90;;;;;;5007837;28;20392;-82
2021/03/08 05:40:01;;;;;;;15.20;7.75;;;-0.30;99.90;;;;;;5003748;28;20451;-83
2021/03/08 05:42:34;;;;;;;16.10;8.23;;;-0.30;99.90;;;;;;5021654;28;20453;-83
2021/03/08 05:45:07;;;;;;;12.32;7.97;;;-0.30;99.90;;;;;;5023110;28;20133;-83
2021/03/08 05:47:55;;;;;;;10.15;7.32;;;-0.30;99.90;;;;;;5005651;28;20073;-83
2021/03/08 05:50:37;;;;;;;13.50;8.27;;;-0.30;99.90;;;;;;5005517;28;20045;-84
2021/03/08 05:53:27;;;;;;;13.35;7.70;;;-0.30;99.90;;;;;;5022942;28;20112;-83
2021/03/08 05:56:19;;;;;;;10.40;7.40;;;-0.30;99.90;;;;;;5004914;28;20060;-83
2021/03/08 05:59:16;;;;;;;14.07;8.10;;;-0.20;99.90;;;;;;5005626;28;20046;-83
2021/03/08 06:02:05;;;;;;;13.48;8.15;;;-0.10;99.90;;;;;;5004928;28;20049;-83
2021/03/08 06:04:55;;;;;;;12.35;7.72;;;-0.10;99.90;;;;;;5022051;28;20108;-83
2021/03/08 06:08:07;;;;;;;17.27;7.88;;;-0.10;99.90;;;;;;5006193;28;20522;-84
2021/03/08 06:10:35;;;;;;;18.08;7.50;;;-0.20;99.90;;;;;;5008819;28;20056;-83
2021/03/08 06:13:09;;;;;;;12.70;7.57;;;-0.10;99.90;;;;;;5014806;28;20046;-84
2021/03/08 06:15:36;;;;;;;164.98;69.65;;;-0.20;99.90;;;;;;5013471;28;20065;-84
2021/03/08 06:18:07;;;;;;;45.58;19.95;;;-0.10;99.90;;;;;;5005812;28;20543;-84
2021/03/08 06:20:34;;;;;;;15.25;9.27;;;-0.10;99.90;;;;;;5023589;28;20123;-84
2021/03/08 06:23:02;;;;;;;17.48;9.25;;;-0.20;99.90;;;;;;5005842;28;20495;-83
2021/03/08 06:25:29;;;;;;;20.08;9.95;;;-0.20;99.90;;;;;;5005905;28;20054;-83
2021/03/08 06:27:57;;;;;;;12.85;8.77;;;-0.10;99.90;;;;;;5006541;28;20081;-84
2021/03/08 06:30:24;;;;;;;311.45;109.97;;;0.00;99.90;;;;;;5007371;28;20057;-82
2021/03/08 06:32:51;;;;;;;35.45;16.25;;;-0.10;99.90;;;;;;5007018;28;20074;-84
2021/03/08 06:35:18;;;;;;;51.67;22.60;;;0.00;99.90;;;;;;5006643;28;20045;-84
2021/03/08 06:37:46;;;;;;;172.50;55.05;;;-0.10;99.90;;;;;;5006885;28;20052;-84
2021/03/08 06:40:15;;;;;;;459.98;173.80;;;-0.10;99.90;;;;;;5024333;28;20046;-84
2021/03/08 06:42:43;;;;;;;30.45;14.15;;;-0.10;99.90;;;;;;5006192;28;20471;-84
2021/03/08 06:45:09;;;;;;;25.55;10.80;;;-0.10;99.90;;;;;;5024784;28;20116;-84
2021/03/08 06:47:36;;;;;;;441.77;192.15;;;-0.20;99.90;;;;;;5007192;28;20088;-84
2021/03/08 06:50:03;;;;;;;240.15;109.55;;;-0.20;99.90;;;;;;5008586;28;20049;-84
2021/03/08 06:52:43;;;;;;;72.00;32.83;;;0.00;99.90;;;;;;5012973;28;20507;-84
2021/03/08 06:55:10;;;;;;;50.60;22.23;;;0.10;99.90;;;;;;5004931;28;20053;-84
2021/03/08 06:57:39;;;;;;;33.05;15.07;;;0.20;99.90;;;;;;5004900;28;20100;-84
2021/03/08 07:00:12;;;;;;;38.40;19.42;;;0.20;99.90;;;;;;5004961;28;20180;-83
2021/03/08 07:02:45;;;;;;;34.33;17.17;;;0.10;99.90;;;;;;5022713;28;20049;-84
2021/03/08 07:05:22;;;;;;;129.95;50.80;;;0.10;99.90;;;;;;5005926;28;20136;-84
2021/03/08 07:08:00;;;;;;;123.03;57.08;;;0.10;99.90;;;;;;5003895;28;20521;-84
2021/03/08 07:10:38;;;;;;;24.48;12.70;;;0.10;99.90;;;;;;5003317;28;20046;-84
2021/03/08 07:13:10;;;;;;;17.58;10.43;;;0.00;99.90;;;;;;5021449;28;20066;-84
2021/03/08 07:15:55;;;;;;;17.13;9.95;;;0.00;99.90;;;;;;5003865;28;20392;-83
2021/03/08 07:18:23;;;;;;;31.00;17.42;;;0.00;99.90;;;;;;5003871;28;20053;-82
2021/03/08 07:21:18;;;;;;;25.40;13.25;;;0.00;99.90;;;;;;5021747;28;20058;-84
2021/03/08 07:23:46;;;;;;;51.25;30.67;;;0.00;99.90;;;;;;4992908;28;20168;-84
2021/03/08 07:26:18;;;;;;;22.38;12.55;;;0.00;99.90;;;;;;5003799;28;20141;-84
2021/03/08 07:29:12;;;;;;;29.80;16.63;;;0.00;99.90;;;;;;5003631;28;20085;-84
2021/03/08 07:31:40;;;;;;;27.05;14.05;;;0.00;99.90;;;;;;5003277;28;20081;-84
2021/03/08 07:34:09;;;;;;;19.27;12.90;;;-0.10;99.90;;;;;;5003673;28;20145;-83
2021/03/08 07:36:43;;;;;;;22.20;11.45;;;0.00;99.90;;;;;;5003936;28;20054;-84
2021/03/08 07:39:13;;;;;;;21.00;11.68;;;0.10;99.90;;;;;;5003968;28;20042;-84
2021/03/08 07:42:04;;;;;;;18.20;10.65;;;0.10;99.90;;;;;;5003563;28;20144;-84
2021/03/08 07:44:31;;;;;;;16.63;10.23;;;0.20;99.90;;;;;;5004004;28;20069;-84
2021/03/08 07:47:19;;;;;;;14.82;9.35;;;0.20;99.90;;;;;;5022839;28;20046;-84
2021/03/08 07:49:46;;;;;;;18.40;10.55;;;0.10;99.90;;;;;;5004423;28;20053;-84
2021/03/08 07:52:14;;;;;;;18.08;10.00;;;0.30;99.90;;;;;;5004988;28;20057;-84
2021/03/08 07:54:58;;;;;;;20.40;14.73;;;0.50;99.90;;;;;;5022792;28;20046;-84
2021/03/08 07:57:25;;;;;;;;;;;0.40;99.90;;;;;;5006304;28;20491;-84
2021/03/08 07:59:51;;;;;;;15.73;10.25;;;0.50;99.90;;;;;;5005417;28;19928;-84
2021/03/08 08:02:18;;;;;;;18.30;10.27;;;0.40;99.90;;;;;;5004468;28;20141;-83
2021/03/08 08:05:00;;;;;;;20.27;10.05;;;0.40;99.90;;;;;;5001254;28;20100;-84
2021/03/08 08:07:27;;;;;;;13.98;9.73;;;0.40;99.90;;;;;;5004241;28;20077;-84
2021/03/08 08:09:57;;;;;;;17.88;10.93;;;0.40;99.90;;;;;;5009076;28;20127;-83
2021/03/08 08:12:32;;;;;;;28.63;12.05;;;0.40;99.90;;;;;;5005471;28;20046;-84
2021/03/08 08:15:03;;;;;;;23.63;11.88;;;0.30;99.90;;;;;;5005991;28;20053;-84
2021/03/08 08:17:34;;;;;;;19.23;11.50;;;0.30;99.90;;;;;;5006417;28;20058;-84
2021/03/08 08:20:04;;;;;;;17.85;11.02;;;0.40;99.90;;;;;;5007868;28;20064;-84
2021/03/08 08:22:34;;;;;;;28.08;17.80;;;0.60;99.90;;;;;;5009087;28;20058;-84
2021/03/08 08:25:03;;;;;;;22.50;11.95;;;0.60;99.90;;;;;;5008083;28;20116;-85
2021/03/08 08:27:32;;;;;;;20.83;11.95;;;0.70;99.90;;;;;;5002736;28;20117;-83
2021/03/08 08:30:03;;;;;;;24.73;12.60;;;0.70;99.90;;;;;;5000615;28;20403;-84
2021/03/08 08:32:56;;;;;;;20.27;12.00;;;0.70;99.90;;;;;;5000797;28;20141;-84
2021/03/08 08:35:32;;;;;;;27.10;10.98;;;0.60;99.90;;;;;;5000590;28;20046;-83
2021/03/08 08:38:07;;;;;;;23.27;11.70;;;0.70;99.90;;;;;;5000355;28;20046;-84
2021/03/08 08:40:35;;;;;;;24.80;11.15;;;0.70;99.90;;;;;;4999412;28;20050;-83
2021/03/08 08:43:14;;;;;;;30.52;12.18;;;0.70;99.90;;;;;;4998608;28;20060;-84
2021/03/08 08:45:47;;;;;;;45.30;20.80;;;0.80;99.90;;;;;;5029555;28;20049;-84
2021/03/08 08:48:13;;;;;;;48.63;21.65;;;0.60;99.90;;;;;;5020265;28;20054;-84
2021/03/08 08:50:44;;;;;;;27.05;13.98;;;0.60;99.90;;;;;;5023388;28;20530;-84
2021/03/08 08:53:10;;;;;;;26.95;13.55;;;0.70;99.90;;;;;;5022759;28;20510;-84
2021/03/08 08:55:36;;;;;;;24.70;12.40;;;0.70;99.90;;;;;;5040883;28;20045;-84
2021/03/08 08:58:24;;;;;;;33.33;16.45;;;0.70;99.90;;;;;;5022460;28;20045;-84
2021/03/08 09:01:10;;;;;;;24.13;13.65;;;0.80;99.90;;;;;;5024493;28;20053;-84
2021/03/08 09:03:59;;;;;;;22.10;12.07;;;0.80;99.90;;;;;;5022746;28;20108;-84
2021/03/08 09:06:43;;;;;;;22.38;12.02;;;0.90;99.90;;;;;;5027345;28;20061;-85
2021/03/08 09:09:14;;;;;;;26.55;14.10;;;1.10;99.90;;;;;;5025684;28;20080;-84
2021/03/08 09:11:58;;;;;;;36.25;20.17;;;1.50;99.90;;;;;;5029175;28;20057;-84
2021/03/08 09:14:34;;;;;;;23.92;15.00;;;1.70;99.90;;;;;;5030614;28;20058;-85
2021/03/08 09:17:14;;;;;;;30.00;14.82;;;1.90;99.90;;;;;;5037488;28;20041;-85
2021/03/08 09:19:43;;;;;;;31.10;15.90;;;2.00;99.90;;;;;;5037157;28;20073;-85
2021/03/08 09:22:27;;;;;;;26.52;15.68;;;2.30;99.90;;;;;;5029095;28;20060;-85
2021/03/08 09:25:02;;;;;;;30.42;15.93;;;2.40;99.90;;;;;;5025516;28;20053;-85
2021/03/08 09:27:34;;;;;;;35.47;16.65;;;2.50;99.90;;;;;;5036093;28;20050;-85
2021/03/08 09:30:10;;;;;;;27.42;15.27;;;2.70;99.90;;;;;;5037133;28;20105;-84
2021/03/08 09:32:58;;;;;;;31.90;17.98;;;2.80;99.90;;;;;;5032620;28;20077;-83
2021/03/08 09:35:27;;;;;;;44.10;22.63;;;2.60;99.90;;;;;;5032299;28;20077;-85
2021/03/08 09:37:55;;;;;;;38.13;20.88;;;2.50;99.90;;;;;;5031459;28;20056;-84
2021/03/08 09:40:37;;;;;;;30.05;19.52;;;2.50;99.90;;;;;;5034607;28;20064;-85
2021/03/08 09:43:38;;;;;;;49.05;20.88;;;2.60;99.90;;;;;;5037739;28;20077;-84
2021/03/08 09:46:07;;;;;;;44.58;21.75;;;2.50;99.90;;;;;;5037588;28;20048;-84
2021/03/08 09:48:37;;;;;;;42.30;21.70;;;2.50;99.90;;;;;;5035399;28;20069;-85
2021/03/08 09:51:04;;;;;;;37.10;19.25;;;2.70;99.90;;;;;;5035288;28;20045;-85
2021/03/08 09:53:32;;;;;;;27.85;16.58;;;2.90;99.90;;;;;;5035396;28;20519;-84
2021/03/08 09:56:04;;;;;;;29.65;17.00;;;3.10;99.90;;;;;;5035564;28;20045;-85
2021/03/08 09:58:34;;;;;;;32.53;18.38;;;3.30;99.90;;;;;;5034985;28;20045;-84
2021/03/08 10:01:14;;;;;;;30.70;17.90;;;3.40;99.90;;;;;;5035518;28;20084;-85
2021/03/08 10:03:44;;;;;;;31.15;18.63;;;3.20;99.90;;;;;;5034218;28;20046;-85
2021/03/08 10:06:29;;;;;;;35.05;20.15;;;3.00;99.90;;;;;;5025285;28;20042;-85
2021/03/08 10:08:56;;;;;;;31.45;18.20;;;2.80;99.90;;;;;;5022279;28;20069;-85
2021/03/08 10:11:27;;;;;;;31.63;17.52;;;2.70;99.90;;;;;;5021788;28;20045;-85
2021/03/08 10:13:54;;;;;;;32.35;17.85;;;2.50;99.90;;;;;;5023144;28;20049;-85
2021/03/08 10:16:26;;;;;;;33.33;17.05;;;2.70;99.90;;;;;;5023441;28;20046;-83
2021/03/08 10:18:54;;;;;;;32.67;17.50;;;2.70;99.90;;;;;;5022987;28;20058;-86
2021/03/08 10:21:22;;;;;;;34.25;19.83;;;2.60;99.90;;;;;;5015840;28;20046;-84
2021/03/08 10:23:49;;;;;;;32.83;18.08;;;2.50;99.90;;;;;;5014773;28;20061;-86
2021/03/08 10:26:18;;;;;;;42.33;20.02;;;2.50;99.90;;;;;;5016721;28;20169;-84
2021/03/08 10:28:46;;;;;;;35.40;19.02;;;2.40;99.90;;;;;;5016192;28;20050;-86
2021/03/08 10:31:26;;;;;;;34.30;19.77;;;2.40;99.90;;;;;;5016031;28;20050;-85
2021/03/08 10:33:54;;;;;;;43.78;20.98;;;2.40;99.90;;;;;;5019572;28;20034;-84
2021/03/08 10:36:30;;;;;;;34.42;19.05;;;2.20;99.90;;;;;;5025488;28;20050;-85
2021/03/08 10:38:58;;;;;;;34.92;18.75;;;2.40;99.90;;;;;;5022308;28;20073;-85
2021/03/08 10:41:30;;;;;;;34.70;20.35;;;2.50;99.90;;;;;;5015606;28;20054;-85
2021/03/08 10:43:58;;;;;;;56.17;31.83;;;2.50;99.90;;;;;;5030683;28;20034;-84
2021/03/08 10:46:33;;;;;;;45.10;25.83;;;2.40;99.90;;;;;;5034631;28;20058;-85
2021/03/08 10:49:09;;;;;;;43.35;22.88;;;2.40;99.90;;;;;;5034804;28;20047;-85
2021/03/08 10:51:37;;;;;;;33.40;19.95;;;2.50;99.90;;;;;;5034309;28;20057;-85
2021/03/08 10:54:07;;;;;;;44.00;21.27;;;2.60;99.90;;;;;;5035175;28;20056;-86
2021/03/08 10:56:38;;;;;;;43.90;25.88;;;2.60;99.90;;;;;;5035274;28;20053;-85
2021/03/08 10:59:27;;;;;;;67.32;35.95;;;2.60;99.90;;;;;;5034698;28;20080;-85
2021/03/08 11:02:10;;;;;;;34.80;21.40;;;2.70;99.90;;;;;;5024345;28;20120;-86
2021/03/08 11:04:37;;;;;;;40.72;21.33;;;2.80;99.90;;;;;;5023435;28;20550;-85
2021/03/08 11:07:04;;;;;;;38.42;21.30;;;2.90;99.90;;;;;;5014202;28;20141;-85
2021/03/08 11:09:36;;;;;;;95.03;51.22;;;2.90;99.90;;;;;;5037211;28;20076;-84
2021/03/08 11:12:04;;;;;;;56.08;31.00;;;2.80;99.90;;;;;;5026572;28;20068;-85
2021/03/08 11:14:48;;;;;;;30.83;19.20;;;2.80;99.90;;;;;;5035948;28;20116;-85
2021/03/08 11:17:14;;;;;;;32.20;17.52;;;2.90;99.90;;;;;;5035650;28;20050;-85
2021/03/08 11:19:41;;;;;;;59.95;34.83;;;2.90;99.90;;;;;;5035981;28;20053;-85
2021/03/08 11:22:13;;;;;;;542.80;285.30;;;3.00;99.90;;;;;;5034811;28;20049;-86
2021/03/08 11:24:41;;;;;;;42.42;22.88;;;2.80;99.90;;;;;;5035029;28;20049;-86
2021/03/08 11:27:25;;;;;;;41.53;21.45;;;2.80;99.90;;;;;;5034828;28;20050;-86
2021/03/08 11:29:57;;;;;;;85.65;44.30;;;2.90;99.90;;;;;;5026621;28;20042;-86
2021/03/08 11:32:27;;;;;;;57.58;34.67;;;2.80;99.90;;;;;;5026492;28;20041;-86
2021/03/08 11:35:15;;;;;;;30.15;16.05;;;2.90;99.90;;;;;;5036918;28;20051;-86
2021/03/08 11:37:54;;;;;;;36.92;21.13;;;2.90;99.90;;;;;;5035284;28;20479;-86
2021/03/08 11:40:22;;;;;;;29.27;17.13;;;3.00;99.90;;;;;;5034128;28;20073;-86
2021/03/08 11:42:49;;;;;;;32.92;17.70;;;3.00;99.90;;;;;;5051384;28;20063;-86
2021/03/08 11:45:18;;;;;;;26.48;15.90;;;2.90;99.90;;;;;;5033905;28;20084;-86
2021/03/08 11:47:44;;;;;;;26.55;15.73;;;3.00;99.90;;;;;;5034970;28;20053;-86
2021/03/08 11:50:11;;;;;;;30.92;16.17;;;3.30;99.90;;;;;;5034519;28;20080;-86
2021/03/08 11:52:38;;;;;;;28.13;15.38;;;3.50;99.90;;;;;;5034200;28;20046;-86
2021/03/08 11:55:05;;;;;;;27.77;15.90;;;3.60;99.90;;;;;;5028549;28;20060;-86
2021/03/08 11:57:31;;;;;;;22.02;13.20;;;3.70;99.90;;;;;;5023236;28;20049;-86
2021/03/08 11:59:57;;;;;;;24.75;14.00;;;3.70;99.90;;;;;;5019964;28;20081;-86
2021/03/08 12:02:24;;;;;;;27.23;15.07;;;3.60;99.90;;;;;;5013215;28;20089;-84
2021/03/08 12:04:53;;;;;;;24.27;14.55;;;3.50;99.90;;;;;;5014040;28;20061;-86
2021/03/08 12:07:19;;;;;;;23.98;14.73;;;3.70;99.90;;;;;;5014409;28;20049;-86
2021/03/08 12:09:46;;;;;;;19.80;13.75;;;3.80;99.90;;;;;;5031764;28;20069;-86
2021/03/08 12:12:12;;;;;;;19.48;12.15;;;3.90;99.90;;;;;;5034434;28;20074;-85
2021/03/08 12:14:38;;;;;;;18.83;11.23;;;4.30;99.90;;;;;;5016344;28;20077;-86
2021/03/08 12:17:05;;;;;;;18.60;10.93;;;4.80;99.90;;;;;;5015616;28;20085;-86
2021/03/08 12:19:45;;;;;;;18.02;10.85;;;5.00;99.90;;;;;;5016380;28;20050;-86
2021/03/08 12:22:12;;;;;;;15.50;9.85;;;5.20;99.90;;;;;;5015288;28;20058;-86
2021/03/08 12:24:38;;;;;;;17.48;9.63;;;5.60;99.90;;;;;;5014624;28;20045;-86
2021/03/08 12:27:05;;;;;;;13.38;8.73;;;5.80;99.90;;;;;;5016005;28;20054;-85
2021/03/08 12:29:31;;;;;;;11.82;8.15;;;5.90;99.90;;;;;;5032171;28;20077;-86
2021/03/08 12:31:58;;;;;;;14.75;9.73;;;6.00;99.90;;;;;;5020255;28;20046;-85
2021/03/08 12:34:25;;;;;;;15.68;9.85;;;6.60;99.90;;;;;;5014870;28;20057;-85
2021/03/08 12:36:52;;;;;;;14.65;9.80;;;7.10;99.90;;;;;;5013216;28;20396;-85
2021/03/08 12:39:19;;;;;;;14.13;10.02;;;7.50;99.90;;;;;;5012273;28;20053;-86
2021/03/08 12:41:46;;;;;;;15.02;8.68;;;8.00;99.90;;;;;;5017313;28;20050;-86
2021/03/08 12:44:13;;;;;;;12.00;8.88;;;8.40;99.90;;;;;;5017261;28;20489;-85
2021/03/08 12:46:39;;;;;;;15.40;10.40;;;8.20;99.90;;;;;;5016782;28;20061;-86
2021/03/08 12:49:07;;;;;;;14.55;10.57;;;7.80;99.90;;;;;;5015881;28;20050;-85
2021/03/08 12:51:34;;;;;;;15.52;9.27;;;8.10;99.90;;;;;;5015993;28;20054;-86
2021/03/08 12:54:01;;;;;;;13.52;8.50;;;8.50;99.90;;;;;;5015179;28;20046;-86
2021/03/08 12:56:28;;;;;;;13.50;8.25;;;8.20;99.90;;;;;;5015576;28;20069;-86
2021/03/08 12:58:55;;;;;;;10.57;8.23;;;7.80;99.90;;;;;;5015020;28;20400;-85